Time;durP1;ratioP1;P1;durP2;ratioP2;P2;SDS_P1;SDS_P2;PMS_P1;PMS_P2;Temp;Humidity;BMP_temperature;BMP_pressure;BME280_temperature;BME280_humidity;BME280_pressure;Samples;Min_cycle;Max_cycle;Signal;HPM_P1;HPM_P2
2023/06/05 00:01:11;;;;;;;6.57;4.03;;;13.90;99.90;;;;;;5095348;28;20016;-84
2023/06/05 00:03:37;;;;;;;7.05;4.90;;;13.80;99.90;;;;;;5098997;28;20032;-83
2023/06/05 00:06:03;;;;;;;4.82;4.35;;;13.80;99.90;;;;;;5090897;28;20039;-84
2023/06/05 00:08:37;;;;;;;5.20;4.20;;;13.90;99.90;;;;;;5094645;28;20043;-84
2023/06/05 00:11:03;;;;;;;4.68;4.15;;;13.80;99.90;;;;;;5095270;28;20486;-84
2023/06/05 00:13:28;;;;;;;7.22;5.20;;;13.40;99.90;;;;;;5095329;28;20036;-84
2023/06/05 00:15:54;;;;;;;11.15;4.60;;;15.40;99.90;;;;;;5094514;28;20020;-84
2023/06/05 00:18:20;;;;;;;6.32;4.53;;;13.70;99.90;;;;;;5095366;28;20478;-84
2023/06/05 00:20:46;;;;;;;11.02;5.22;;;13.70;99.90;;;;;;5095349;28;20102;-83
2023/06/05 00:23:11;;;;;;;6.05;4.38;;;13.70;99.90;;;;;;5094498;28;20484;-84
2023/06/05 00:25:37;;;;;;;6.65;4.57;;;13.70;99.90;;;;;;5094975;28;20024;-84
2023/06/05 00:28:03;;;;;;;7.05;5.72;;;13.60;99.90;;;;;;5094552;28;20039;-84
2023/06/05 00:30:28;;;;;;;11.38;4.38;;;13.50;99.90;;;;;;5093576;28;20061;-84
2023/06/05 00:32:55;;;;;;;6.40;4.68;;;13.60;99.90;;;;;;5095148;28;20468;-83
2023/06/05 00:35:21;;;;;;;7.43;4.97;;;13.40;99.90;;;;;;5095114;28;20111;-84
2023/06/05 00:37:46;;;;;;;8.90;5.32;;;13.40;99.90;;;;;;5094176;28;20108;-84
2023/06/05 00:40:12;;;;;;;6.53;4.40;;;13.40;99.90;;;;;;5094584;28;20028;-84
2023/06/05 00:42:38;;;;;;;7.55;5.07;;;13.40;99.90;;;;;;5094600;28;20030;-84
2023/06/05 00:45:04;;;;;;;8.50;5.00;;;13.40;99.90;;;;;;5093854;28;20107;-84
2023/06/05 00:47:31;;;;;;;10.20;5.53;;;13.40;99.90;;;;;;5094475;28;20531;-84
2023/06/05 00:49:57;;;;;;;8.07;5.30;;;12.40;99.90;;;;;;5094459;28;20020;-83
2023/06/05 00:52:23;;;;;;;8.75;5.93;;;13.30;99.90;;;;;;5093780;28;20030;-84
2023/06/05 00:54:49;;;;;;;8.43;4.97;;;13.20;99.90;;;;;;5094280;28;20487;-84
2023/06/05 00:57:15;;;;;;;5.53;4.78;;;13.20;99.90;;;;;;5094431;28;20507;-84
2023/06/05 00:59:44;;;;;;;10.15;6.15;;;13.30;99.90;;;;;;5093620;28;20535;-84
2023/06/05 01:02:13;;;;;;;5.90;5.30;;;12.90;99.90;;;;;;5094082;28;20032;-84
2023/06/05 01:04:43;;;;;;;7.13;5.55;;;13.20;99.90;;;;;;5093679;28;20031;-84
2023/06/05 01:07:10;;;;;;;10.18;5.57;;;13.20;99.90;;;;;;5094372;28;20093;-84
2023/06/05 01:09:37;;;;;;;7.63;5.72;;;13.20;99.90;;;;;;5094190;28;20024;-84
2023/06/05 01:12:10;;;;;;;8.35;6.15;;;13.20;99.90;;;;;;5093335;28;20534;-84
2023/06/05 01:14:38;;;;;;;9.48;6.00;;;13.10;99.90;;;;;;5094001;28;20031;-83
2023/06/05 01:17:04;;;;;;;7.60;5.47;;;13.10;99.90;;;;;;5094236;28;20024;-84
2023/06/05 01:19:32;;;;;;;8.95;5.55;;;13.20;99.90;;;;;;5093340;28;20065;-84
2023/06/05 01:21:59;;;;;;;6.32;5.72;;;13.10;99.90;;;;;;5093932;28;20150;-84
2023/06/05 01:24:27;;;;;;;9.32;6.13;;;13.10;99.90;;;;;;5095777;28;20080;-84
2023/06/05 01:27:00;;;;;;;10.38;7.28;;;13.00;99.90;;;;;;5097093;28;20020;-84
2023/06/05 01:29:44;;;;;;;7.55;5.97;;;13.00;99.90;;;;;;5094221;28;20031;-84
2023/06/05 01:32:18;;;;;;;12.00;6.68;;;13.20;99.90;;;;;;5094284;28;20043;-84
2023/06/05 01:34:48;;;;;;;8.40;6.22;;;12.70;99.90;;;;;;5093145;28;20061;-84
2023/06/05 01:37:18;;;;;;;8.32;6.95;;;12.90;99.90;;;;;;5093724;28;20035;-83
2023/06/05 01:39:46;;;;;;;12.18;7.05;;;12.70;99.90;;;;;;5093718;28;20054;-84
2023/06/05 01:42:13;;;;;;;7.82;6.50;;;12.80;99.90;;;;;;5093546;28;20117;-84
2023/06/05 01:44:40;;;;;;;9.40;6.50;;;12.80;99.90;;;;;;5093667;28;20039;-84
2023/06/05 01:47:07;;;;;;;7.28;6.60;;;12.80;99.90;;;;;;5092750;28;20165;-84
2023/06/05 01:49:33;;;;;;;10.88;6.93;;;12.80;99.90;;;;;;5093468;28;20020;-84
2023/06/05 01:51:59;;;;;;;8.80;6.68;;;12.80;99.90;;;;;;5093408;28;20031;-84
2023/06/05 01:54:26;;;;;;;8.18;6.75;;;12.70;99.90;;;;;;5092733;28;20042;-84
2023/06/05 01:56:52;;;;;;;11.15;7.05;;;12.40;99.90;;;;;;5093740;28;20032;-84
2023/06/05 01:59:19;;;;;;;11.43;7.50;;;12.70;99.90;;;;;;5093389;28;20107;-83
2023/06/05 02:01:45;;;;;;;8.40;5.97;;;12.80;99.90;;;;;;5092552;28;20533;-84
2023/06/05 02:04:11;;;;;;;7.47;6.10;;;12.70;99.90;;;;;;5093266;28;20031;-84
2023/06/05 02:06:42;;;;;;;7.40;6.70;;;12.70;99.90;;;;;;5093077;28;20032;-84
2023/06/05 02:09:14;;;;;;;15.73;6.97;;;12.70;99.90;;;;;;5092707;28;20046;-83
2023/06/05 02:11:45;;;;;;;10.55;6.95;;;12.30;99.90;;;;;;5093038;28;20028;-84
2023/06/05 02:14:13;;;;;;;8.35;6.35;;;12.70;99.90;;;;;;5093244;28;20035;-84
2023/06/05 02:16:40;;;;;;;10.45;6.93;;;12.80;99.90;;;;;;5092341;28;20046;-84
2023/06/05 02:19:06;;;;;;;9.88;6.32;;;12.60;99.90;;;;;;5093295;28;20032;-84
2023/06/05 02:21:33;;;;;;;9.15;7.28;;;12.60;99.90;;;;;;5093355;28;20107;-84
2023/06/05 02:24:00;;;;;;;12.07;6.63;;;12.60;99.90;;;;;;5092287;28;20020;-84
2023/06/05 02:26:26;;;;;;;7.28;6.57;;;11.70;99.90;;;;;;5092981;28;20051;-84
2023/06/05 02:28:53;;;;;;;8.80;7.85;;;12.50;99.90;;;;;;5093014;28;20089;-84
2023/06/05 02:31:25;;;;;;;7.60;6.75;;;12.60;99.90;;;;;;5092435;28;20493;-84
2023/06/05 02:33:52;;;;;;;7.63;6.93;;;12.50;99.90;;;;;;5093216;28;20028;-84
2023/06/05 02:36:18;;;;;;;12.65;7.65;;;12.50;99.90;;;;;;5092052;28;20080;-84
2023/06/05 02:38:44;;;;;;;8.75;7.13;;;12.00;99.90;;;;;;5093065;28;20111;-84
2023/06/05 02:41:10;;;;;;;9.50;7.13;;;12.50;99.90;;;;;;5092985;28;20020;-84
2023/06/05 02:43:35;;;;;;;8.38;7.55;;;12.40;99.90;;;;;;5092150;28;20483;-83
2023/06/05 02:46:01;;;;;;;11.93;7.28;;;12.40;99.90;;;;;;5092821;28;20047;-84
2023/06/05 02:48:26;;;;;;;9.10;6.63;;;12.40;99.90;;;;;;5094441;28;20032;-83
2023/06/05 02:50:52;;;;;;;7.72;6.93;;;12.40;99.90;;;;;;5094381;28;20048;-83
2023/06/05 02:53:18;;;;;;;8.35;7.55;;;12.40;99.90;;;;;;5095817;28;20032;-84
2023/06/05 02:55:43;;;;;;;11.77;7.88;;;12.40;99.90;;;;;;5096653;28;20067;-84
2023/06/05 02:58:12;;;;;;;7.45;6.72;;;12.40;99.90;;;;;;5096004;28;20471;-84
2023/06/05 03:00:38;;;;;;;10.25;7.07;;;12.40;99.90;;;;;;5096584;28;20036;-84
2023/06/05 03:03:06;;;;;;;7.78;6.97;;;13.10;99.90;;;;;;5096542;28;20074;-84
2023/06/05 03:05:32;;;;;;;8.52;7.68;;;12.30;99.90;;;;;;5096083;28;20107;-84
2023/06/05 03:07:57;;;;;;;9.10;7.35;;;12.30;99.90;;;;;;5096497;28;20460;-84
2023/06/05 03:10:23;;;;;;;8.30;7.35;;;12.30;99.90;;;;;;5096514;28;20061;-84
2023/06/05 03:12:49;;;;;;;10.80;8.05;;;12.30;99.90;;;;;;5095947;28;20464;-84
2023/06/05 03:15:15;;;;;;;7.93;6.90;;;12.40;99.90;;;;;;5096369;28;20446;-84
2023/06/05 03:17:41;;;;;;;11.18;7.75;;;12.40;99.90;;;;;;5096617;28;20028;-84
2023/06/05 03:20:09;;;;;;;10.88;7.70;;;12.40;99.90;;;;;;5095382;28;20502;-84
2023/06/05 03:22:35;;;;;;;9.10;7.07;;;12.30;99.90;;;;;;5096276;28;20035;-83
2023/06/05 03:25:01;;;;;;;8.77;7.82;;;12.40;99.90;;;;;;5096329;28;20016;-84
2023/06/05 03:27:26;;;;;;;8.45;7.25;;;12.30;99.90;;;;;;5096687;28;20039;-84
2023/06/05 03:29:52;;;;;;;8.10;7.30;;;12.40;99.90;;;;;;5096027;28;20383;-84
2023/06/05 03:32:17;;;;;;;11.52;7.57;;;12.40;99.90;;;;;;5096033;28;20244;-83
2023/06/05 03:34:48;;;;;;;9.70;7.47;;;12.30;99.90;;;;;;5095718;28;20025;-83
2023/06/05 03:37:14;;;;;;;13.02;7.47;;;12.20;99.90;;;;;;5096119;28;20032;-84
2023/06/05 03:39:40;;;;;;;12.88;7.60;;;12.20;99.90;;;;;;5095280;28;20139;-83
2023/06/05 03:42:08;;;;;;;9.45;8.18;;;12.20;99.90;;;;;;5095792;28;20023;-84
2023/06/05 03:44:34;;;;;;;8.02;7.10;;;12.20;99.90;;;;;;5096184;28;20073;-84
2023/06/05 03:47:00;;;;;;;8.18;7.40;;;12.50;99.90;;;;;;5095261;28;20040;-84
2023/06/05 03:49:26;;;;;;;9.07;7.85;;;12.20;99.90;;;;;;5095897;28;20036;-84
2023/06/05 03:51:52;;;;;;;9.25;7.47;;;13.30;99.90;;;;;;5095753;28;20030;-84
2023/06/05 03:54:17;;;;;;;9.52;6.95;;;12.10;99.90;;;;;;5094916;28;20560;-84
2023/06/05 03:56:49;;;;;;;9.52;6.95;;;12.90;99.90;;;;;;5095597;28;20017;-84
2023/06/05 03:59:19;;;;;;;13.57;7.45;;;12.00;99.90;;;;;;5095774;28;20479;-84
2023/06/05 04:01:45;;;;;;;10.18;7.70;;;12.20;99.90;;;;;;5094880;28;20483;-84
2023/06/05 04:04:11;;;;;;;8.32;7.15;;;12.20;99.90;;;;;;5095462;28;20062;-84
2023/06/05 04:06:36;;;;;;;9.48;7.38;;;12.30;99.90;;;;;;5095153;28;20059;-84
2023/06/05 04:09:10;;;;;;;12.30;7.70;;;12.30;99.90;;;;;;5094717;28;20078;-85
2023/06/05 04:11:35;;;;;;;9.93;7.72;;;12.20;99.90;;;;;;5099827;28;20052;-83
2023/06/05 04:14:01;;;;;;;10.18;8.10;;;12.20;99.90;;;;;;5097370;28;20526;-84
2023/06/05 04:16:28;;;;;;;9.95;8.70;;;12.10;99.90;;;;;;5094658;28;20368;-84
2023/06/05 04:18:54;;;;;;;9.73;8.35;;;12.20;99.90;;;;;;5095171;28;20532;-84
2023/06/05 04:21:19;;;;;;;13.63;8.20;;;12.20;99.90;;;;;;5094925;28;20107;-84
2023/06/05 04:23:45;;;;;;;12.05;8.82;;;12.20;99.90;;;;;;5093957;28;20070;-84
2023/06/05 04:26:11;;;;;;;10.13;8.95;;;12.20;99.90;;;;;;5094792;28;20028;-84
2023/06/05 04:28:36;;;;;;;11.82;9.60;;;12.20;99.90;;;;;;5094247;28;20028;-84
2023/06/05 04:31:02;;;;;;;15.70;9.48;;;12.20;99.90;;;;;;5095054;28;20023;-84
2023/06/05 04:33:28;;;;;;;13.65;8.93;;;12.20;99.90;;;;;;5094984;28;20035;-84
2023/06/05 04:35:54;;;;;;;12.23;8.27;;;12.20;99.90;;;;;;5094189;28;20379;-84
2023/06/05 04:38:21;;;;;;;9.85;8.73;;;11.50;99.90;;;;;;5094842;28;20109;-84
2023/06/05 04:40:48;;;;;;;12.80;8.65;;;12.30;99.90;;;;;;5094675;28;20020;-85
2023/06/05 04:43:14;;;;;;;12.93;8.45;;;12.20;99.90;;;;;;5094426;28;20032;-85
2023/06/05 04:45:40;;;;;;;12.80;8.35;;;12.20;99.90;;;;;;5094722;28;20031;-83
2023/06/05 04:48:05;;;;;;;13.77;7.93;;;12.20;99.90;;;;;;5094482;28;20032;-84
2023/06/05 04:50:33;;;;;;;13.57;8.25;;;12.20;99.90;;;;;;5093853;28;20111;-84
2023/06/05 04:52:59;;;;;;;11.85;8.55;;;12.20;99.90;;;;;;5094384;28;20451;-85
2023/06/05 04:55:24;;;;;;;11.25;8.20;;;12.30;99.90;;;;;;5094351;28;20071;-85
2023/06/05 04:57:51;;;;;;;12.52;7.72;;;12.30;99.90;;;;;;5093821;28;20081;-85
2023/06/05 05:00:17;;;;;;;9.00;7.60;;;12.10;99.90;;;;;;5094390;28;20044;-85
2023/06/05 05:02:42;;;;;;;13.77;8.02;;;12.30;99.90;;;;;;5094415;28;20050;-85
2023/06/05 05:05:08;;;;;;;9.90;8.15;;;12.30;99.90;;;;;;5093794;28;20555;-85
2023/06/05 05:07:35;;;;;;;11.10;7.47;;;12.40;99.90;;;;;;5093664;28;20373;-85
2023/06/05 05:10:01;;;;;;;10.27;9.32;;;12.40;99.90;;;;;;5094449;28;20053;-86
2023/06/05 05:12:26;;;;;;;9.48;7.85;;;12.50;99.90;;;;;;5093494;28;20027;-85
2023/06/05 05:14:52;;;;;;;17.67;8.38;;;12.50;99.90;;;;;;5093623;28;20024;-85
2023/06/05 05:17:19;;;;;;;11.52;8.77;;;12.60;99.90;;;;;;5094264;28;20039;-85
2023/06/05 05:19:45;;;;;;;14.55;8.13;;;12.50;99.90;;;;;;5093457;28;20028;-85
2023/06/05 05:22:10;;;;;;;14.48;9.32;;;13.30;99.90;;;;;;5093997;28;20024;-85
2023/06/05 05:24:36;;;;;;;17.23;7.82;;;12.50;99.90;;;;;;5094168;28;20612;-85
2023/06/05 05:27:05;;;;;;;10.50;7.15;;;12.50;99.90;;;;;;5090338;28;20101;-85
2023/06/05 05:29:33;;;;;;;8.35;7.35;;;14.20;99.90;;;;;;5093867;28;20076;-85
2023/06/05 05:31:58;;;;;;;10.05;7.18;;;14.10;99.90;;;;;;5093100;28;20394;-85
2023/06/05 05:34:24;;;;;;;9.65;7.72;;;12.70;99.90;;;;;;5099421;28;20046;-84
2023/06/05 05:36:49;;;;;;;10.85;7.90;;;12.80;99.90;;;;;;5103167;28;20020;-85
2023/06/05 05:39:15;;;;;;;10.95;7.57;;;12.90;99.90;;;;;;5093096;28;20439;-85
2023/06/05 05:41:41;;;;;;;9.18;7.20;;;13.00;99.90;;;;;;5093854;28;20103;-85
2023/06/05 05:44:07;;;;;;;14.70;7.88;;;13.00;99.90;;;;;;5093212;28;20433;-85
2023/06/05 05:46:32;;;;;;;9.18;7.90;;;13.00;99.90;;;;;;5092630;28;20031;-85
2023/06/05 05:48:58;;;;;;;8.27;6.93;;;12.90;99.90;;;;;;5093603;28;20036;-85
2023/06/05 05:51:24;;;;;;;10.82;7.32;;;12.90;99.90;;;;;;5093376;28;20016;-86
2023/06/05 05:53:50;;;;;;;10.13;7.88;;;12.90;99.90;;;;;;5092757;28;20598;-85
2023/06/05 05:56:15;;;;;;;8.15;7.35;;;12.90;99.90;;;;;;5093680;28;20067;-86
2023/06/05 05:58:42;;;;;;;13.68;7.57;;;13.00;99.90;;;;;;5093557;28;20031;-85
2023/06/05 06:01:08;;;;;;;11.05;7.38;;;12.90;99.90;;;;;;5092585;28;20059;-85
2023/06/05 06:03:36;;;;;;;17.90;7.13;;;12.90;99.90;;;;;;5093249;28;20051;-85
2023/06/05 06:06:04;;;;;;;11.70;7.63;;;12.90;99.90;;;;;;5093104;28;20083;-85
2023/06/05 06:08:30;;;;;;;11.68;8.02;;;13.00;99.90;;;;;;5093216;28;20485;-85
2023/06/05 06:10:55;;;;;;;17.42;7.45;;;13.00;99.90;;;;;;5093318;28;20093;-85
2023/06/05 06:13:21;;;;;;;8.85;7.55;;;13.20;99.90;;;;;;5093217;28;20024;-85
2023/06/05 06:15:46;;;;;;;7.88;7.07;;;13.00;99.90;;;;;;5092307;28;20045;-85
2023/06/05 06:18:12;;;;;;;10.95;7.65;;;13.00;99.90;;;;;;5093011;28;20714;-85
2023/06/05 06:20:38;;;;;;;10.77;8.15;;;12.40;99.90;;;;;;5092850;28;20537;-85
2023/06/05 06:23:03;;;;;;;10.43;7.68;;;13.00;99.90;;;;;;5092175;28;20107;-85
2023/06/05 06:25:31;;;;;;;10.13;8.82;;;13.00;99.90;;;;;;5092884;28;20027;-85
2023/06/05 06:27:58;;;;;;;10.48;9.02;;;12.10;99.90;;;;;;5092041;28;20036;-85
2023/06/05 06:30:24;;;;;;;12.25;8.48;;;13.00;99.90;;;;;;5092597;28;20024;-85
2023/06/05 06:32:50;;;;;;;9.23;7.93;;;13.10;99.90;;;;;;5092906;28;20107;-85
2023/06/05 06:35:15;;;;;;;12.35;8.30;;;13.30;99.90;;;;;;5092591;28;20429;-86
2023/06/05 06:37:42;;;;;;;10.40;8.45;;;13.70;99.90;;;;;;5093242;28;20028;-86
2023/06/05 06:40:08;;;;;;;11.20;8.98;;;13.30;99.90;;;;;;5092898;28;20024;-85
2023/06/05 06:42:34;;;;;;;14.15;8.90;;;13.30;99.90;;;;;;5092242;28;20137;-85
2023/06/05 06:45:00;;;;;;;11.57;9.07;;;13.30;99.90;;;;;;5093173;28;20491;-85
2023/06/05 06:47:25;;;;;;;10.98;8.90;;;13.40;99.90;;;;;;5092744;28;20345;-86
2023/06/05 06:49:51;;;;;;;10.95;8.10;;;14.20;99.90;;;;;;5092239;28;20024;-86
2023/06/05 06:52:18;;;;;;;11.98;8.10;;;13.50;99.90;;;;;;5092544;28;20054;-85
2023/06/05 06:54:44;;;;;;;12.60;9.25;;;13.50;99.90;;;;;;5092588;28;20135;-85
2023/06/05 06:57:09;;;;;;;14.13;8.10;;;13.50;99.90;;;;;;5095140;28;20031;-85
2023/06/05 06:59:35;;;;;;;8.15;7.28;;;13.50;99.90;;;;;;5105851;28;20032;-85
2023/06/05 07:02:13;;;;;;;9.82;8.20;;;13.50;99.90;;;;;;5092943;28;20026;-86
2023/06/05 07:04:43;;;;;;;12.38;9.00;;;13.60;99.90;;;;;;5092112;28;20027;-85
2023/06/05 07:07:17;;;;;;;8.40;7.32;;;13.60;99.90;;;;;;5092766;28;20372;-85
2023/06/05 07:09:44;;;;;;;9.70;7.68;;;13.70;99.90;;;;;;5092626;28;20368;-86
2023/06/05 07:12:11;;;;;;;11.85;7.55;;;13.80;99.90;;;;;;5091924;28;20035;-85
2023/06/05 07:14:38;;;;;;;8.60;7.45;;;13.80;99.90;;;;;;5092962;28;20024;-85
2023/06/05 07:17:03;;;;;;;7.65;6.90;;;13.90;99.90;;;;;;5092495;28;20024;-85
2023/06/05 07:19:33;;;;;;;10.15;7.72;;;13.70;99.90;;;;;;5092316;28;20016;-85
2023/06/05 07:22:00;;;;;;;13.60;7.82;;;13.90;99.90;;;;;;5092901;28;20547;-85
2023/06/05 07:24:27;;;;;;;10.80;8.05;;;14.00;99.90;;;;;;5091751;28;20024;-85
2023/06/05 07:26:55;;;;;;;12.02;8.43;;;14.10;99.90;;;;;;5092536;28;20032;-86
2023/06/05 07:29:23;;;;;;;7.45;6.75;;;13.10;99.90;;;;;;5092488;28;20032;-85
2023/06/05 07:31:49;;;;;;;7.95;6.47;;;14.00;99.90;;;;;;5092174;28;20050;-86
2023/06/05 07:34:15;;;;;;;8.90;7.22;;;13.90;99.90;;;;;;5092679;28;20043;-85
2023/06/05 07:36:41;;;;;;;8.07;7.25;;;14.80;99.90;;;;;;5092459;28;20552;-85
2023/06/05 07:39:06;;;;;;;7.70;6.68;;;14.20;99.90;;;;;;5094046;28;20063;-85
2023/06/05 07:41:32;;;;;;;7.70;7.03;;;14.10;99.90;;;;;;5095865;28;20057;-85
2023/06/05 07:43:58;;;;;;;7.93;7.15;;;14.20;99.90;;;;;;5095669;28;20135;-86
2023/06/05 07:46:23;;;;;;;8.27;7.05;;;14.20;99.90;;;;;;5094737;28;20066;-85
2023/06/05 07:48:49;;;;;;;7.55;6.53;;;14.30;99.90;;;;;;5095994;28;20036;-85
2023/06/05 07:51:15;;;;;;;8.45;6.53;;;14.20;99.90;;;;;;5095728;28;20028;-86
2023/06/05 07:53:43;;;;;;;6.32;5.75;;;14.40;99.90;;;;;;5094882;28;20541;-85
2023/06/05 07:56:08;;;;;;;10.63;7.00;;;15.40;99.90;;;;;;5095647;28;20032;-86
2023/06/05 07:58:34;;;;;;;8.05;7.18;;;14.40;99.90;;;;;;5095285;28;20073;-85
2023/06/05 08:01:00;;;;;;;7.32;6.53;;;14.50;99.90;;;;;;5094683;28;20024;-84
2023/06/05 08:03:25;;;;;;;9.05;6.88;;;14.40;99.90;;;;;;5095614;28;20048;-85
2023/06/05 08:05:51;;;;;;;8.10;6.90;;;14.50;99.90;;;;;;5095493;28;20024;-85
2023/06/05 08:08:17;;;;;;;9.77;6.38;;;14.00;99.90;;;;;;5094468;28;20032;-85
2023/06/05 08:10:43;;;;;;;7.35;6.65;;;14.60;99.90;;;;;;5095351;28;20028;-85
2023/06/05 08:13:10;;;;;;;12.52;6.60;;;14.90;99.90;;;;;;5076893;28;20480;-85
2023/06/05 08:15:36;;;;;;;7.88;6.05;;;14.70;99.90;;;;;;5094840;28;20028;-85
2023/06/05 08:18:02;;;;;;;9.48;6.07;;;14.70;99.90;;;;;;5095112;28;20027;-86
2023/06/05 08:20:28;;;;;;;7.43;5.90;;;14.70;99.90;;;;;;5099235;28;20028;-85
2023/06/05 08:22:57;;;;;;;9.38;5.72;;;14.70;99.90;;;;;;5099649;28;20028;-85
2023/06/05 08:25:23;;;;;;;9.35;5.78;;;13.90;99.90;;;;;;5094945;28;20020;-85
2023/06/05 08:27:49;;;;;;;11.25;5.80;;;14.80;99.90;;;;;;5094211;28;20065;-85
2023/06/05 08:30:16;;;;;;;9.70;5.88;;;14.10;99.90;;;;;;5095113;28;20032;-85
2023/06/05 08:32:41;;;;;;;11.18;6.03;;;14.90;99.90;;;;;;5095044;28;20039;-85
2023/06/05 08:35:07;;;;;;;6.63;4.97;;;15.80;99.90;;;;;;5094131;28;20020;-85
2023/06/05 08:37:33;;;;;;;6.65;5.38;;;15.00;99.90;;;;;;5094815;28;20046;-85
2023/06/05 08:40:00;;;;;;;35.17;8.48;;;14.30;99.90;;;;;;5094489;28;20028;-85
2023/06/05 08:42:28;;;;;;;25.80;6.22;;;15.30;99.90;;;;;;5094319;28;20043;-86
2023/06/05 08:44:54;;;;;;;10.45;5.82;;;15.10;99.90;;;;;;5094381;28;20523;-85
2023/06/05 08:47:23;;;;;;;5.50;4.93;;;15.20;99.90;;;;;;5094579;28;20120;-85
2023/06/05 08:49:52;;;;;;;23.75;6.47;;;15.40;99.90;;;;;;5093161;28;20115;-85
2023/06/05 08:52:20;;;;;;;6.07;4.63;;;16.40;99.90;;;;;;5094606;28;20023;-85
2023/06/05 08:54:46;;;;;;;6.25;4.57;;;15.40;99.90;;;;;;5094244;28;20558;-85
2023/06/05 08:57:12;;;;;;;38.17;7.45;;;15.80;99.90;;;;;;5093644;28;20115;-85
2023/06/05 08:59:38;;;;;;;36.03;7.72;;;16.60;99.90;;;;;;5094648;28;20027;-85
2023/06/05 09:02:04;;;;;;;28.27;6.43;;;15.50;99.90;;;;;;5094396;28;20511;-85
2023/06/05 09:04:30;;;;;;;11.80;4.30;;;15.30;99.90;;;;;;5093722;28;20032;-84
2023/06/05 09:07:06;;;;;;;23.45;6.05;;;15.70;99.90;;;;;;5094069;28;20024;-85
2023/06/05 09:09:33;;;;;;;5.40;3.47;;;15.90;99.90;;;;;;5094428;28;20028;-85
2023/06/05 09:12:06;;;;;;;4.65;3.97;;;15.60;99.90;;;;;;5093490;28;20032;-85
2023/06/05 09:14:32;;;;;;;7.07;4.55;;;15.70;99.90;;;;;;5094147;28;20035;-85
2023/06/05 09:17:00;;;;;;;5.25;4.70;;;15.40;99.90;;;;;;5093592;28;20050;-85
2023/06/05 09:19:38;;;;;;;6.63;4.65;;;15.70;99.90;;;;;;5094088;28;20029;-85
2023/06/05 09:22:06;;;;;;;6.43;4.18;;;15.10;99.90;;;;;;5094090;28;20103;-85
2023/06/05 09:24:32;;;;;;;42.58;6.68;;;16.90;99.90;;;;;;5093266;28;20387;-85
2023/06/05 09:27:00;;;;;;;45.60;7.07;;;16.10;99.90;;;;;;5094035;28;20028;-85
2023/06/05 09:29:26;;;;;;;41.55;7.47;;;17.00;99.90;;;;;;5093929;28;20016;-85
2023/06/05 09:31:53;;;;;;;13.70;4.38;;;15.90;99.90;;;;;;5093044;28;20421;-85
2023/06/05 09:34:31;;;;;;;5.07;4.35;;;15.00;99.90;;;;;;5093683;28;20111;-85
2023/06/05 09:36:58;;;;;;;5.03;4.30;;;16.00;99.90;;;;;;5093605;28;20367;-85
2023/06/05 09:39:25;;;;;;;5.72;4.45;;;15.30;99.90;;;;;;5092891;28;20028;-85
2023/06/05 09:41:51;;;;;;;5.55;4.07;;;15.90;99.90;;;;;;5093986;28;20051;-85
2023/06/05 09:44:19;;;;;;;7.63;5.13;;;16.10;99.90;;;;;;5104369;28;20042;-85
2023/06/05 09:46:52;;;;;;;4.60;4.20;;;16.20;99.90;;;;;;5094517;28;20028;-85
2023/06/05 09:49:19;;;;;;;5.55;5.05;;;16.30;99.90;;;;;;5093341;28;20027;-85
2023/06/05 09:51:45;;;;;;;5.15;4.65;;;17.10;99.90;;;;;;5093444;28;20486;-84
2023/06/05 09:54:12;;;;;;;6.88;5.47;;;16.40;99.90;;;;;;5092498;28;20062;-84
2023/06/05 09:56:40;;;;;;;6.03;5.20;;;16.40;99.90;;;;;;5093462;28;20020;-85
2023/06/05 09:59:07;;;;;;;8.30;4.80;;;15.80;99.90;;;;;;5092967;28;20031;-85
2023/06/05 10:01:36;;;;;;;7.65;4.60;;;16.50;99.90;;;;;;5092596;28;20027;-85
2023/06/05 10:04:06;;;;;;;5.80;5.13;;;15.70;99.90;;;;;;5093208;28;20028;-84
2023/06/05 10:06:33;;;;;;;6.68;5.68;;;16.60;99.90;;;;;;5092638;28;20047;-85
2023/06/05 10:09:00;;;;;;;7.00;6.03;;;16.60;99.90;;;;;;5093250;28;20040;-85
2023/06/05 10:11:26;;;;;;;8.00;6.05;;;16.60;99.90;;;;;;5093014;28;20024;-85
2023/06/05 10:13:53;;;;;;;9.00;5.93;;;15.80;99.90;;;;;;5092454;28;20070;-85
2023/06/05 10:16:19;;;;;;;7.70;6.13;;;16.40;99.90;;;;;;5093311;28;20081;-84
2023/06/05 10:18:49;;;;;;;10.68;5.50;;;17.00;99.90;;;;;;5092823;28;20028;-85
2023/06/05 10:21:18;;;;;;;8.52;6.68;;;16.90;99.90;;;;;;5092008;28;20035;-85
2023/06/05 10:24:28;;;;;;;7.95;6.38;;;16.80;99.90;;;;;;5092826;28;20079;-85
2023/06/05 10:27:15;;;;;;;7.38;6.05;;;16.80;99.90;;;;;;5073153;28;20381;-85
2023/06/05 10:30:09;;;;;;;7.70;7.00;;;16.90;99.90;;;;;;5092716;28;20024;-84
2023/06/05 10:33:03;;;;;;;9.85;7.20;;;16.90;99.90;;;;;;5092711;28;20058;-85
2023/06/05 10:36:03;;;;;;;7.22;6.50;;;17.00;99.90;;;;;;5092693;28;20081;-86
2023/06/05 10:38:30;;;;;;;10.50;6.45;;;17.00;99.90;;;;;;5092848;28;20029;-86
2023/06/05 10:40:58;;;;;;;9.50;7.03;;;17.20;99.90;;;;;;5092672;28;20051;-84
2023/06/05 10:43:25;;;;;;;7.63;6.82;;;17.00;99.90;;;;;;5092206;28;20048;-84
2023/06/05 10:45:51;;;;;;;9.00;6.95;;;17.20;99.90;;;;;;5092936;28;20028;-84
2023/06/05 10:48:17;;;;;;;7.43;6.82;;;16.20;99.90;;;;;;5092512;28;20036;-84
2023/06/05 10:50:43;;;;;;;7.88;6.90;;;17.60;99.90;;;;;;5091840;28;20085;-84
2023/06/05 10:53:41;;;;;;;7.30;6.47;;;17.40;99.90;;;;;;5092588;28;20028;-84
2023/06/05 10:56:07;;;;;;;7.70;6.78;;;17.20;99.90;;;;;;5092218;28;20036;-85
2023/06/05 10:58:32;;;;;;;7.47;6.72;;;17.20;99.90;;;;;;5092520;28;20468;-83
2023/06/05 11:01:18;;;;;;;9.82;7.32;;;17.90;99.90;;;;;;5092650;28;20089;-84
2023/06/05 11:03:58;;;;;;;7.22;6.45;;;17.20;99.90;;;;;;5091779;28;20095;-84
2023/06/05 11:06:24;;;;;;;6.93;6.30;;;17.20;99.90;;;;;;5092733;28;20035;-84
2023/06/05 11:09:28;;;;;;;8.32;6.70;;;16.70;99.90;;;;;;5092586;28;20032;-84
2023/06/05 11:12:01;;;;;;;8.48;5.80;;;17.20;99.90;;;;;;5049648;28;20029;-84
2023/06/05 11:14:47;;;;;;;7.45;6.05;;;17.30;99.90;;;;;;5053051;28;20028;-84
2023/06/05 11:17:31;;;;;;;10.07;6.38;;;17.40;99.90;;;;;;5080498;28;20028;-84
2023/06/05 11:20:00;;;;;;;6.65;5.97;;;17.40;99.90;;;;;;5096266;28;20016;-84
2023/06/05 11:22:27;;;;;;;7.07;5.75;;;17.40;99.90;;;;;;5096065;28;20042;-84
2023/06/05 11:25:14;;;;;;;7.00;6.40;;;17.40;99.90;;;;;;5095499;28;20024;-83
2023/06/05 11:27:54;;;;;;;7.05;5.03;;;17.40;99.90;;;;;;5095908;28;20484;-84
2023/06/05 11:30:24;;;;;;;10.82;5.95;;;17.50;99.90;;;;;;5096180;28;20089;-86
2023/06/05 11:32:52;;;;;;;6.70;6.10;;;18.40;99.90;;;;;;5095396;28;20120;-86
2023/06/05 11:35:21;;;;;;;6.53;5.93;;;16.50;99.90;;;;;;5096015;28;20024;-85
2023/06/05 11:37:46;;;;;;;14.73;5.93;;;17.60;99.90;;;;;;5095376;28;20027;-85
2023/06/05 11:40:24;;;;;;;7.22;6.15;;;17.60;99.90;;;;;;5095926;28;20467;-85
2023/06/05 11:42:49;;;;;;;9.02;6.13;;;17.90;99.90;;;;;;5095731;28;20016;-86
2023/06/05 11:45:15;;;;;;;7.18;6.47;;;17.70;99.90;;;;;;5095045;28;20031;-85
2023/06/05 11:47:41;;;;;;;8.20;6.20;;;18.50;99.90;;;;;;5095537;28;20609;-85
2023/06/05 11:50:08;;;;;;;6.68;5.55;;;17.70;99.90;;;;;;5095603;28;20020;-85
2023/06/05 11:52:33;;;;;;;6.22;5.63;;;17.80;99.90;;;;;;5094925;28;20106;-85
2023/06/05 11:55:19;;;;;;;11.93;5.90;;;17.80;99.90;;;;;;5095372;28;20067;-85
2023/06/05 11:57:46;;;;;;;6.70;4.97;;;17.90;99.90;;;;;;5095439;28;20028;-85
2023/06/05 12:00:13;;;;;;;6.35;5.72;;;17.90;99.90;;;;;;5094635;28;20024;-85
2023/06/05 12:02:41;;;;;;;6.50;5.68;;;18.00;99.90;;;;;;5095516;28;20032;-85
2023/06/05 12:05:09;;;;;;;7.32;4.95;;;18.70;99.90;;;;;;5095958;28;20021;-85
2023/06/05 12:07:39;;;;;;;7.25;4.75;;;17.80;99.90;;;;;;5094589;28;20089;-85
2023/06/05 12:10:06;;;;;;;5.53;5.00;;;18.00;99.90;;;;;;5095311;28;20038;-85
2023/06/05 12:12:48;;;;;;;19.60;5.30;;;18.00;99.90;;;;;;5095083;28;20069;-85
2023/06/05 12:15:14;;;;;;;6.10;5.35;;;18.10;99.90;;;;;;5095137;28;20487;-84
2023/06/05 12:17:40;;;;;;;7.90;4.80;;;18.80;99.90;;;;;;5095172;28;20024;-85
2023/06/05 12:20:08;;;;;;;22.13;6.50;;;18.10;99.90;;;;;;5094287;28;20031;-85
2023/06/05 12:22:34;;;;;;;11.07;5.68;;;18.10;99.90;;;;;;5094945;28;20472;-84
2023/06/05 12:25:19;;;;;;;11.55;5.60;;;18.10;99.90;;;;;;5093381;28;20031;-85
2023/06/05 12:27:46;;;;;;;5.68;4.57;;;19.40;99.90;;;;;;5094265;28;20032;-85
2023/06/05 12:30:17;;;;;;;5.47;4.68;;;18.30;99.90;;;;;;5094943;28;20031;-85
2023/06/05 12:32:44;;;;;;;7.63;4.78;;;17.60;99.90;;;;;;5094734;28;20502;-84
2023/06/05 12:35:20;;;;;;;5.22;4.75;;;19.30;99.90;;;;;;5094320;28;20056;-85
2023/06/05 12:37:47;;;;;;;4.95;4.55;;;19.00;99.90;;;;;;5094736;28;20020;-84
2023/06/05 12:40:13;;;;;;;5.00;4.60;;;17.60;99.90;;;;;;5094747;28;20103;-84
2023/06/05 12:42:40;;;;;;;4.22;3.80;;;18.50;99.90;;;;;;5093984;28;20093;-84
2023/06/05 12:45:07;;;;;;;8.63;4.88;;;18.50;99.90;;;;;;5094616;28;20028;-84
2023/06/05 12:47:34;;;;;;;10.18;3.95;;;18.50;99.90;;;;;;5094352;28;20377;-84